Time;durP1;ratioP1;P1;durP2;ratioP2;P2;SDS_P1;SDS_P2;PMS_P1;PMS_P2;Temp;Humidity;BMP_temperature;BMP_pressure;BME280_temperature;BME280_humidity;BME280_pressure;Samples;Min_cycle;Max_cycle;Signal;HPM_P1;HPM_P2
2022/04/29 00:00:18;;;;;;;48.47;26.27;;;7.30;99.90;;;;;;5071218;28;20039;-52
2022/04/29 00:02:45;;;;;;;;;;;7.40;99.90;;;;;;5072381;28;20357;-51
2022/04/29 00:05:11;;;;;;;45.90;25.98;;;7.50;99.90;;;;;;5071405;28;19915;-54
2022/04/29 00:07:39;;;;;;;49.20;26.30;;;7.40;99.90;;;;;;5070646;28;20028;-53
2022/04/29 00:10:15;;;;;;;49.05;27.73;;;7.50;99.90;;;;;;5071118;28;20387;-53
2022/04/29 00:12:46;;;;;;;63.33;30.67;;;7.40;99.90;;;;;;5070749;28;20036;-51
2022/04/29 00:15:14;;;;;;;55.22;28.63;;;7.30;99.90;;;;;;5070566;28;20033;-51
2022/04/29 00:17:40;;;;;;;52.47;27.00;;;7.40;99.90;;;;;;5070557;28;20438;-51
2022/04/29 00:20:07;;;;;;;50.75;25.30;;;7.30;99.90;;;;;;5070203;28;20075;-52
2022/04/29 00:22:33;;;;;;;56.38;27.42;;;7.10;99.90;;;;;;5069987;28;20059;-50
2022/04/29 00:24:59;;;;;;;48.42;25.33;;;6.90;99.90;;;;;;5070221;28;20031;-50
2022/04/29 00:27:25;;;;;;;53.08;25.50;;;6.70;99.90;;;;;;5070252;28;20029;-52
2022/04/29 00:29:51;;;;;;;53.13;27.38;;;6.70;99.90;;;;;;5070289;28;20100;-50
2022/04/29 00:32:17;;;;;;;50.10;28.52;;;6.60;99.90;;;;;;5069929;28;20391;-51
2022/04/29 00:34:43;;;;;;;49.70;27.55;;;6.80;99.90;;;;;;5070003;28;20067;-50
2022/04/29 00:37:10;;;;;;;51.47;27.85;;;6.90;99.90;;;;;;5070960;28;20044;-52
2022/04/29 00:39:36;;;;;;;55.63;27.20;;;7.00;99.90;;;;;;5070528;28;20024;-51
2022/04/29 00:42:22;;;;;;;52.30;28.52;;;6.80;99.90;;;;;;5070895;28;20387;-52
2022/04/29 00:44:49;;;;;;;54.63;28.02;;;6.60;99.90;;;;;;5070173;28;20029;-51
2022/04/29 00:47:17;;;;;;;54.65;29.88;;;6.80;99.90;;;;;;5052561;28;20442;-49
2022/04/29 00:49:44;;;;;;;56.00;30.40;;;6.90;99.90;;;;;;5070367;28;20036;-51
2022/04/29 00:52:16;;;;;;;51.15;28.90;;;7.00;99.90;;;;;;5070761;28;20381;-49
2022/04/29 00:54:45;;;;;;;55.08;28.83;;;6.80;99.90;;;;;;5070650;28;20096;-50
2022/04/29 00:57:17;;;;;;;47.47;26.55;;;6.70;99.90;;;;;;5052699;28;20445;-50
2022/04/29 00:59:51;;;;;;;54.85;31.10;;;6.70;99.90;;;;;;5070394;28;20055;-49
2022/04/29 01:02:16;;;;;;;53.30;28.65;;;6.70;99.90;;;;;;5070903;28;20035;-51
2022/04/29 01:04:52;;;;;;;46.85;26.85;;;6.70;99.90;;;;;;5052255;28;20020;-51
2022/04/29 01:07:17;;;;;;;49.95;29.27;;;6.60;99.90;;;;;;5070401;28;20020;-51
2022/04/29 01:09:43;;;;;;;48.30;26.17;;;6.60;99.90;;;;;;5051364;28;20057;-50
2022/04/29 01:12:09;;;;;;;47.45;24.60;;;6.60;99.90;;;;;;5070199;28;20477;-51
2022/04/29 01:14:35;;;;;;;49.83;26.52;;;6.40;99.90;;;;;;5070006;28;20543;-51
2022/04/29 01:17:00;;;;;;;44.80;24.45;;;6.40;99.90;;;;;;5070340;28;20024;-51
2022/04/29 01:19:26;;;;;;;42.45;25.20;;;6.40;99.90;;;;;;5070162;28;20020;-50
2022/04/29 01:21:52;;;;;;;40.28;23.35;;;6.40;99.90;;;;;;5070109;28;20048;-50
2022/04/29 01:24:18;;;;;;;44.72;24.55;;;6.30;99.90;;;;;;5051711;28;20053;-53
2022/04/29 01:26:43;;;;;;;43.78;24.17;;;6.30;99.90;;;;;;5069997;28;20024;-51
2022/04/29 01:29:10;;;;;;;48.08;25.13;;;6.10;99.90;;;;;;5069555;28;20016;-49
2022/04/29 01:31:38;;;;;;;44.90;25.30;;;6.10;99.90;;;;;;5070073;28;20025;-52
2022/04/29 01:34:03;;;;;;;46.97;24.42;;;5.90;99.90;;;;;;5069699;28;20123;-50
2022/04/29 01:36:29;;;;;;;41.00;24.23;;;5.80;99.90;;;;;;5069902;28;20099;-51
2022/04/29 01:38:55;;;;;;;43.92;22.58;;;6.00;99.90;;;;;;5069618;28;20157;-50
2022/04/29 01:41:20;;;;;;;40.95;23.83;;;5.80;99.90;;;;;;5069644;28;20403;-53
2022/04/29 01:43:46;;;;;;;39.47;22.77;;;5.70;99.90;;;;;;5069449;28;20025;-51
2022/04/29 01:46:12;;;;;;;41.85;23.15;;;5.70;99.90;;;;;;5069207;28;20085;-51
2022/04/29 01:48:38;;;;;;;39.70;23.27;;;5.70;99.90;;;;;;5069886;28;20044;-50
2022/04/29 01:51:06;;;;;;;40.90;22.40;;;5.60;99.90;;;;;;5069472;28;20025;-51
2022/04/29 01:53:32;;;;;;;48.38;23.40;;;5.60;99.90;;;;;;5069100;28;20024;-54
2022/04/29 01:55:59;;;;;;;43.25;22.35;;;5.60;99.90;;;;;;5069161;28;20149;-49
2022/04/29 01:58:24;;;;;;;41.42;22.85;;;5.40;99.90;;;;;;5069562;28;20028;-51
2022/04/29 02:00:50;;;;;;;43.45;24.30;;;5.10;99.90;;;;;;5069360;28;20036;-52
2022/04/29 02:03:16;;;;;;;41.53;23.30;;;5.00;99.90;;;;;;5069121;28;20028;-50
2022/04/29 02:05:42;;;;;;;40.47;23.02;;;5.10;99.90;;;;;;5069533;28;20032;-52
2022/04/29 02:08:08;;;;;;;40.55;21.25;;;5.00;99.90;;;;;;5069583;28;20498;-53
2022/04/29 02:10:34;;;;;;;39.70;22.77;;;4.80;99.90;;;;;;5069154;28;20024;-51
2022/04/29 02:13:00;;;;;;;42.35;22.85;;;4.90;99.90;;;;;;5051485;28;20013;-52
2022/04/29 02:15:26;;;;;;;43.70;22.85;;;5.20;99.90;;;;;;5069031;28;20029;-50
2022/04/29 02:17:52;;;;;;;45.60;23.00;;;5.30;99.90;;;;;;5069379;28;20020;-50
2022/04/29 02:20:18;;;;;;;44.70;22.90;;;5.30;99.90;;;;;;5069086;28;20129;-50
2022/04/29 02:22:43;;;;;;;46.30;25.38;;;5.40;99.90;;;;;;5068591;28;20032;-52
2022/04/29 02:25:10;;;;;;;41.85;23.27;;;5.30;99.90;;;;;;5068348;28;20753;-52
2022/04/29 02:27:39;;;;;;;39.57;23.03;;;5.30;99.90;;;;;;5069421;28;20025;-50
2022/04/29 02:30:05;;;;;;;40.42;24.05;;;5.50;99.90;;;;;;5071034;28;20480;-51
2022/04/29 02:32:32;;;;;;;41.75;22.67;;;5.40;99.90;;;;;;5068297;28;20029;-49
2022/04/29 02:34:58;;;;;;;41.97;23.70;;;5.30;99.90;;;;;;5064578;28;20106;-51
2022/04/29 02:37:24;;;;;;;39.75;23.80;;;5.40;99.90;;;;;;5064544;28;20314;-52
2022/04/29 02:39:50;;;;;;;42.47;22.33;;;5.40;99.90;;;;;;5068541;28;20041;-49
2022/04/29 02:42:16;;;;;;;41.65;23.73;;;5.50;99.90;;;;;;5069266;28;20028;-53
2022/04/29 02:44:41;;;;;;;39.67;23.85;;;5.60;99.90;;;;;;5069006;28;20037;-53
2022/04/29 02:47:10;;;;;;;36.95;23.15;;;5.50;99.90;;;;;;5069092;28;20029;-50
2022/04/29 02:49:41;;;;;;;39.75;22.95;;;5.50;99.90;;;;;;5069187;28;20016;-53
2022/04/29 02:52:09;;;;;;;49.38;23.17;;;5.50;99.90;;;;;;5069037;28;20063;-50
2022/04/29 02:54:35;;;;;;;42.83;23.55;;;5.50;99.90;;;;;;5069002;28;20477;-52
2022/04/29 02:57:02;;;;;;;41.63;23.33;;;5.50;99.90;;;;;;5070890;28;20033;-51
2022/04/29 02:59:27;;;;;;;38.33;22.60;;;5.50;99.90;;;;;;5073117;28;20021;-50
2022/04/29 03:01:53;;;;;;;43.42;23.13;;;5.50;99.90;;;;;;5073043;28;20029;-49
2022/04/29 03:04:19;;;;;;;43.92;24.33;;;5.60;99.90;;;;;;5073111;28;20062;-48
2022/04/29 03:06:45;;;;;;;39.25;23.55;;;5.60;99.90;;;;;;5073119;28;20028;-50
2022/04/29 03:09:11;;;;;;;52.03;25.10;;;5.70;99.90;;;;;;5072405;28;20479;-51
2022/04/29 03:11:38;;;;;;;48.83;25.15;;;5.80;99.90;;;;;;5072897;28;20032;-50
2022/04/29 03:14:03;;;;;;;41.03;23.67;;;5.80;99.90;;;;;;5072707;28;20094;-52
2022/04/29 03:16:29;;;;;;;47.08;25.92;;;5.90;99.90;;;;;;5072575;28;20032;-52
2022/04/29 03:18:55;;;;;;;41.88;22.60;;;5.80;99.90;;;;;;5072674;28;20056;-49
2022/04/29 03:21:21;;;;;;;39.28;23.58;;;5.90;99.90;;;;;;5072447;28;20110;-52
2022/04/29 03:23:48;;;;;;;44.08;24.17;;;5.90;99.90;;;;;;5071933;28;20563;-51
2022/04/29 03:26:14;;;;;;;41.60;24.67;;;6.00;99.90;;;;;;5072642;28;20077;-50
2022/04/29 03:28:39;;;;;;;38.33;23.27;;;6.00;99.90;;;;;;5072737;28;20024;-50
2022/04/29 03:31:05;;;;;;;42.25;24.63;;;6.10;99.90;;;;;;5072036;28;20161;-52
2022/04/29 03:33:31;;;;;;;45.30;26.73;;;6.10;99.90;;;;;;5077095;28;20035;-52
2022/04/29 03:35:57;;;;;;;46.42;26.58;;;6.20;99.90;;;;;;5074616;28;20462;-53
2022/04/29 03:38:24;;;;;;;40.38;26.75;;;6.10;99.90;;;;;;5067919;28;20485;-50
2022/04/29 03:40:53;;;;;;;44.20;27.48;;;6.10;99.90;;;;;;5081912;28;20058;-51
2022/04/29 03:43:19;;;;;;;50.63;26.10;;;6.10;99.90;;;;;;5072100;28;20052;-51
2022/04/29 03:45:45;;;;;;;47.85;28.42;;;6.00;99.90;;;;;;5072002;28;20055;-52
2022/04/29 03:48:11;;;;;;;46.33;26.75;;;6.20;99.90;;;;;;5072184;28;20099;-51
2022/04/29 03:50:38;;;;;;;45.80;28.67;;;6.20;99.90;;;;;;5071814;28;20456;-51
2022/04/29 03:53:05;;;;;;;45.95;28.08;;;6.30;99.90;;;;;;5072017;28;20021;-50
2022/04/29 03:55:32;;;;;;;49.85;29.17;;;6.20;99.90;;;;;;5071993;28;20112;-48
2022/04/29 03:57:59;;;;;;;42.45;25.48;;;6.20;99.90;;;;;;5072299;28;20020;-49
2022/04/29 04:00:31;;;;;;;43.05;26.48;;;6.20;99.90;;;;;;5071575;28;20040;-52
2022/04/29 04:02:57;;;;;;;47.35;26.88;;;6.30;99.90;;;;;;5072057;28;20391;-51
2022/04/29 04:05:23;;;;;;;48.00;27.13;;;6.50;99.90;;;;;;5071649;28;20093;-52
2022/04/29 04:07:49;;;;;;;47.55;27.17;;;6.50;99.90;;;;;;5071563;28;20434;-50
2022/04/29 04:10:15;;;;;;;45.78;27.73;;;6.50;99.90;;;;;;5053034;28;20029;-50
2022/04/29 04:12:47;;;;;;;44.40;26.25;;;6.40;99.90;;;;;;5072006;28;20055;-50
2022/04/29 04:15:14;;;;;;;43.88;25.25;;;6.50;99.90;;;;;;5071309;28;20029;-50
2022/04/29 04:17:40;;;;;;;44.65;26.02;;;6.60;99.90;;;;;;5071685;28;20146;-51
2022/04/29 04:20:08;;;;;;;42.13;25.20;;;6.50;99.90;;;;;;5071396;28;20151;-49
2022/04/29 04:22:35;;;;;;;43.17;24.95;;;6.60;99.90;;;;;;5053580;28;20029;-52
2022/04/29 04:25:06;;;;;;;41.65;24.58;;;6.60;99.90;;;;;;5070956;28;20031;-50
2022/04/29 04:27:32;;;;;;;41.90;23.75;;;6.60;99.90;;;;;;5073750;28;20028;-51
2022/04/29 04:30:01;;;;;;;41.47;25.27;;;6.60;99.90;;;;;;5080188;28;20024;-49
2022/04/29 04:32:27;;;;;;;50.35;26.98;;;6.60;99.90;;;;;;5077740;28;20032;-50
2022/04/29 04:35:00;;;;;;;50.58;26.45;;;6.60;99.90;;;;;;5070769;28;20099;-53
2022/04/29 04:37:27;;;;;;;48.58;26.63;;;6.70;99.90;;;;;;5071499;28;20016;-52
2022/04/29 04:39:54;;;;;;;47.03;26.02;;;6.60;99.90;;;;;;5072374;28;20033;-51
2022/04/29 04:42:20;;;;;;;50.55;28.63;;;6.60;99.90;;;;;;5071352;28;20041;-52
2022/04/29 04:44:47;;;;;;;52.15;27.88;;;6.60;99.90;;;;;;5070827;28;20529;-51
2022/04/29 04:47:13;;;;;;;47.70;27.55;;;6.70;99.90;;;;;;5071386;28;20111;-52
2022/04/29 04:49:39;;;;;;;49.40;29.40;;;6.80;99.90;;;;;;5052788;28;20028;-52
2022/04/29 04:52:05;;;;;;;54.38;30.15;;;6.80;99.90;;;;;;5070756;28;20031;-51
2022/04/29 04:54:31;;;;;;;50.43;28.37;;;6.80;99.90;;;;;;5070334;28;20357;-51
2022/04/29 04:56:57;;;;;;;44.90;29.77;;;6.90;99.90;;;;;;5070931;28;20391;-51
2022/04/29 04:59:23;;;;;;;56.28;31.80;;;6.90;99.90;;;;;;5070341;28;20244;-52
2022/04/29 05:01:49;;;;;;;55.25;30.80;;;6.90;99.90;;;;;;5070840;28;20032;-52
2022/04/29 05:04:14;;;;;;;54.80;30.85;;;7.00;99.90;;;;;;5070633;28;20021;-52
2022/04/29 05:06:40;;;;;;;48.38;30.42;;;7.10;99.90;;;;;;5070593;28;20119;-51
2022/04/29 05:09:06;;;;;;;57.67;31.48;;;7.10;99.90;;;;;;5070553;28;20738;-52
2022/04/29 05:11:32;;;;;;;63.17;29.33;;;7.10;99.90;;;;;;5070532;28;20082;-50
2022/04/29 05:13:58;;;;;;;47.60;28.02;;;7.20;99.90;;;;;;5070403;28;20035;-51
2022/04/29 05:16:24;;;;;;;45.65;27.27;;;7.20;99.90;;;;;;5070332;28;20043;-51
2022/04/29 05:18:50;;;;;;;46.93;26.43;;;7.40;99.90;;;;;;5070283;28;20051;-50
2022/04/29 05:21:17;;;;;;;44.97;25.25;;;7.30;99.90;;;;;;5069507;28;20563;-52
2022/04/29 05:23:43;;;;;;;47.30;27.53;;;7.40;99.90;;;;;;5070281;28;20048;-51
2022/04/29 05:26:09;;;;;;;47.28;27.50;;;7.40;99.90;;;;;;5070416;28;20029;-53
2022/04/29 05:28:34;;;;;;;44.08;25.95;;;7.30;99.90;;;;;;5070249;28;20425;-54
2022/04/29 05:31:01;;;;;;;44.70;26.98;;;7.30;99.90;;;;;;5070691;28;20029;-52
2022/04/29 05:33:28;;;;;;;46.08;27.30;;;7.30;99.90;;;;;;5070504;28;20374;-54
2022/04/29 05:35:55;;;;;;;53.25;28.45;;;7.30;99.90;;;;;;5070418;28;20032;-52
2022/04/29 05:38:21;;;;;;;45.80;27.77;;;7.40;99.90;;;;;;5070164;28;20051;-53
2022/04/29 05:43:31;;;;;;;46.08;27.05;;;7.40;99.90;;;;;;5070497;28;20028;-53
2022/04/29 05:45:57;;;;;;;48.17;27.67;;;7.40;99.90;;;;;;5070480;28;20028;-51
2022/04/29 05:48:23;;;;;;;45.78;25.80;;;7.40;99.90;;;;;;5070257;28;20439;-52
2022/04/29 05:50:49;;;;;;;47.40;28.83;;;7.50;99.90;;;;;;5069261;28;20111;-51
2022/04/29 05:53:15;;;;;;;43.75;27.40;;;7.50;99.90;;;;;;5069907;28;20016;-52
2022/04/29 05:55:42;;;;;;;49.10;27.97;;;7.60;99.90;;;;;;5052137;28;20071;-50
2022/04/29 05:58:08;;;;;;;55.47;27.57;;;7.70;99.90;;;;;;5035347;28;20051;-51
2022/04/29 06:00:34;;;;;;;44.13;26.90;;;7.80;99.90;;;;;;5069723;28;20395;-53
2022/04/29 06:03:00;;;;;;;48.10;27.23;;;8.00;99.90;;;;;;5070098;28;20035;-50
2022/04/29 06:05:26;;;;;;;49.72;27.42;;;8.10;99.90;;;;;;5069860;28;20033;-53
2022/04/29 06:07:53;;;;;;;43.90;26.75;;;8.20;99.90;;;;;;5069598;28;20094;-50
2022/04/29 06:10:19;;;;;;;52.90;27.93;;;8.40;99.90;;;;;;5069577;28;20025;-49
2022/04/29 06:12:46;;;;;;;50.25;26.50;;;8.50;99.90;;;;;;5069539;28;20031;-51
2022/04/29 06:15:19;;;;;;;47.20;28.53;;;8.60;99.90;;;;;;5069806;28;20032;-51
2022/04/29 06:17:44;;;;;;;51.80;28.25;;;8.80;99.90;;;;;;5069912;28;20024;-53
2022/04/29 06:20:11;;;;;;;44.25;26.63;;;8.90;99.90;;;;;;5069052;28;20540;-53
2022/04/29 06:22:46;;;;;;;45.40;25.88;;;9.10;99.90;;;;;;5068548;28;20132;-52
2022/04/29 06:25:12;;;;;;;43.53;26.20;;;9.20;99.90;;;;;;5069472;28;20033;-52
2022/04/29 06:27:38;;;;;;;46.72;26.20;;;9.30;99.90;;;;;;5069823;28;20025;-51
2022/04/29 06:30:05;;;;;;;48.60;27.25;;;9.30;99.90;;;;;;5069585;28;20029;-50
2022/04/29 06:32:31;;;;;;;46.75;26.90;;;9.50;99.90;;;;;;5069106;28;20491;-52
2022/04/29 06:34:56;;;;;;;45.83;25.70;;;9.60;99.90;;;;;;5069592;28;20116;-52
2022/04/29 06:37:22;;;;;;;36.92;23.95;;;9.80;99.90;;;;;;5067986;28;20033;-52
2022/04/29 06:39:48;;;;;;;40.78;24.65;;;9.90;99.90;;;;;;5067771;28;20024;-50
2022/04/29 06:42:13;;;;;;;52.55;24.52;;;10.10;99.90;;;;;;5068051;28;20036;-50
2022/04/29 06:44:39;;;;;;;43.45;24.02;;;10.10;99.90;;;;;;5068104;28;20103;-48
2022/04/29 06:47:05;;;;;;;39.63;22.98;;;10.30;99.90;;;;;;5068056;28;20028;-49
2022/04/29 06:49:31;;;;;;;50.58;25.27;;;10.50;99.90;;;;;;5068726;28;20542;-51
2022/04/29 06:51:57;;;;;;;45.45;24.05;;;10.60;99.90;;;;;;5069323;28;20558;-50
2022/04/29 06:54:22;;;;;;;45.53;23.05;;;10.80;99.90;;;;;;5068573;28;20103;-52
2022/04/29 06:56:48;;;;;;;39.80;21.27;;;10.90;99.90;;;;;;5068744;28;20056;-49
2022/04/29 06:59:14;;;;;;;45.22;25.10;;;10.90;99.90;;;;;;5074198;28;20025;-50
2022/04/29 07:01:39;;;;;;;40.58;23.77;;;11.10;99.90;;;;;;5076503;28;20048;-52
2022/04/29 07:04:05;;;;;;;48.55;23.73;;;11.20;99.90;;;;;;5076702;28;20082;-52
2022/04/29 07:06:31;;;;;;;40.90;24.23;;;11.40;99.90;;;;;;5074904;28;20025;-53
2022/04/29 07:08:57;;;;;;;48.60;23.52;;;11.50;99.90;;;;;;5078828;28;20077;-50
2022/04/29 07:11:25;;;;;;;39.85;19.80;;;11.70;99.90;;;;;;5079095;28;20017;-50
2022/04/29 07:13:52;;;;;;;34.65;18.40;;;11.80;99.90;;;;;;5076399;28;20078;-51
2022/04/29 07:16:19;;;;;;;34.95;19.42;;;12.00;99.90;;;;;;5070879;28;20029;-51
2022/04/29 07:18:45;;;;;;;45.65;21.00;;;12.00;99.90;;;;;;5068656;28;20036;-50
2022/04/29 07:21:10;;;;;;;36.60;20.50;;;12.20;99.90;;;;;;5067310;28;20124;-50
2022/04/29 07:23:36;;;;;;;37.75;19.17;;;12.40;99.90;;;;;;5069386;28;20033;-53
2022/04/29 07:26:02;;;;;;;33.17;18.83;;;12.50;99.90;;;;;;5069155;28;20558;-51
2022/04/29 07:28:28;;;;;;;31.48;16.55;;;12.70;99.90;;;;;;5051525;28;20027;-52
2022/04/29 07:30:56;;;;;;;34.20;17.23;;;12.80;99.90;;;;;;5068331;28;20020;-51
2022/04/29 07:33:23;;;;;;;36.50;18.02;;;12.90;99.90;;;;;;5068695;28;20028;-50
2022/04/29 07:44:02;;;;;;;26.40;15.32;;;13.30;99.90;;;;;;5069398;28;20040;-49
2022/04/29 07:46:27;;;;;;;25.35;10.27;;;13.40;99.90;;;;;;5071702;28;20032;-49
2022/04/29 07:48:53;;;;;;;19.88;8.45;;;13.70;99.90;;;;;;5071113;28;20386;-52
2022/04/29 07:51:19;;;;;;;19.88;9.18;;;13.70;93.70;;;;;;5071381;28;20020;-50
2022/04/29 07:53:45;;;;;;;18.38;8.90;;;13.80;96.10;;;;;;5036201;28;20438;-50
2022/04/29 07:56:10;;;;;;;14.00;6.78;;;14.00;96.70;;;;;;5069916;28;20028;-51
2022/04/29 07:58:37;;;;;;;12.55;5.85;;;14.00;96.00;;;;;;5067301;28;20554;-49
2022/04/29 08:01:05;;;;;;;11.45;4.60;;;14.00;92.70;;;;;;5069913;28;20070;-50
2022/04/29 08:03:31;;;;;;;12.73;5.22;;;14.00;90.10;;;;;;5069610;28;20024;-50
2022/04/29 08:05:56;;;;;;;12.32;4.65;;;13.90;91.20;;;;;;5032920;28;20081;-51
2022/04/29 08:08:22;;;;;;;14.00;4.72;;;14.00;92.00;;;;;;5069728;28;20052;-50
2022/04/29 08:10:50;;;;;;;12.32;5.32;;;14.10;92.00;;;;;;5069246;28;20443;-51
2022/04/29 08:13:16;;;;;;;11.80;4.63;;;14.30;91.70;;;;;;5069247;28;20017;-52
2022/04/29 08:15:43;;;;;;;9.63;4.82;;;14.40;89.90;;;;;;5051429;28;20045;-52
2022/04/29 08:18:09;;;;;;;27.15;5.07;;;14.30;87.30;;;;;;5051416;28;20573;-49
2022/04/29 08:20:35;;;;;;;19.73;4.78;;;14.30;88.50;;;;;;5068989;28;20120;-49
2022/04/29 08:23:01;;;;;;;6.32;3.10;;;14.50;79.00;;;;;;5069373;28;20027;-50
2022/04/29 08:25:27;;;;;;;6.97;2.80;;;14.50;78.60;;;;;;5051576;28;20033;-52
2022/04/29 08:27:52;;;;;;;7.75;2.88;;;14.50;79.10;;;;;;5068707;28;20131;-50
2022/04/29 08:30:18;;;;;;;7.40;2.60;;;14.50;73.80;;;;;;5050892;28;20035;-50
2022/04/29 08:32:46;;;;;;;7.18;2.70;;;14.70;74.10;;;;;;5068052;28;20032;-51
2022/04/29 08:35:13;;;;;;;7.50;2.63;;;14.70;71.80;;;;;;5069324;28;20059;-50
2022/04/29 08:37:40;;;;;;;6.75;3.15;;;14.70;69.20;;;;;;5066968;28;20460;-50
2022/04/29 08:40:08;;;;;;;8.63;3.00;;;14.70;69.90;;;;;;5050573;28;20126;-52
2022/04/29 08:42:37;;;;;;;6.78;3.10;;;14.70;69.50;;;;;;5069103;28;20548;-53
2022/04/29 08:45:14;;;;;;;5.15;3.38;;;14.70;70.90;;;;;;5069694;28;20054;-52
2022/04/29 08:47:41;;;;;;;7.40;3.08;;;14.80;71.80;;;;;;5069141;28;20394;-49
2022/04/29 08:50:08;;;;;;;;;;;15.10;71.50;;;;;;5068445;28;20086;-50
2022/04/29 08:52:35;;;;;;;5.57;3.33;;;15.10;69.50;;;;;;5069571;28;19916;-50
2022/04/29 09:00:54;;;;;;;7.15;2.45;;;14.90;67.20;;;;;;5069451;28;20039;-52
2022/04/29 09:03:22;;;;;;;10.30;3.33;;;15.10;69.10;;;;;;5051688;28;20020;-52
2022/04/29 09:05:48;;;;;;;8.85;3.58;;;15.50;69.00;;;;;;5069007;28;20189;-50
2022/04/29 09:08:16;;;;;;;7.47;2.42;;;15.80;70.10;;;;;;5069774;28;20059;-51
2022/04/29 09:10:52;;;;;;;9.25;3.15;;;15.90;67.50;;;;;;5069723;28;20040;-50
2022/04/29 09:13:20;;;;;;;4.82;2.42;;;16.20;64.00;;;;;;5068719;28;20016;-49
2022/04/29 09:15:49;;;;;;;4.50;2.53;;;16.20;62.00;;;;;;5069407;28;20017;-52
2022/04/29 09:18:34;;;;;;;4.20;2.20;;;16.30;58.00;;;;;;5069744;28;20016;-52
2022/04/29 09:21:22;;;;;;;8.77;3.28;;;16.10;59.80;;;;;;5068950;28;20133;-50
2022/04/29 09:23:55;;;;;;;5.22;2.45;;;16.00;58.60;;;;;;5068763;28;20021;-51
2022/04/29 09:26:35;;;;;;;9.30;2.95;;;16.00;59.30;;;;;;5068009;28;20020;-50
2022/04/29 09:29:14;;;;;;;5.95;2.50;;;15.90;61.30;;;;;;5067592;28;20016;-50
2022/04/29 09:31:53;;;;;;;5.07;2.30;;;16.20;62.50;;;;;;5067888;28;20024;-52
2022/04/29 09:34:19;;;;;;;6.63;2.60;;;16.70;62.10;;;;;;5067177;28;20021;-51
2022/04/29 09:36:44;;;;;;;6.85;2.67;;;16.90;59.00;;;;;;5069917;28;20020;-51
2022/04/29 09:39:30;;;;;;;5.22;2.25;;;17.20;60.20;;;;;;5069921;28;20031;-49
2022/04/29 09:41:59;;;;;;;8.50;2.65;;;17.50;59.80;;;;;;5067462;28;20403;-50
2022/04/29 09:44:45;;;;;;;4.35;2.20;;;17.70;57.20;;;;;;5079485;28;20390;-50
2022/04/29 09:47:14;;;;;;;4.22;2.35;;;17.70;58.10;;;;;;5068163;28;20467;-50
2022/04/29 09:50:03;;;;;;;7.90;2.45;;;18.00;60.70;;;;;;5075982;28;20013;-52
2022/04/29 09:52:30;;;;;;;56.33;13.82;;;18.10;57.90;;;;;;5076499;28;20024;-51
2022/04/29 09:55:10;;;;;;;10.73;2.70;;;18.40;58.50;;;;;;5080703;28;20044;-53
2022/04/29 09:58:01;;;;;;;14.60;2.60;;;18.40;54.00;;;;;;5081114;28;20027;-50
2022/04/29 10:00:27;;;;;;;77.28;10.38;;;18.40;54.40;;;;;;5077372;28;20036;-55
2022/04/29 10:02:53;;;;;;;10.57;3.28;;;18.20;54.40;;;;;;5078978;28;20023;-52
2022/04/29 10:05:19;;;;;;;5.88;2.47;;;18.00;54.20;;;;;;5080467;28;20020;-51
2022/04/29 10:07:45;;;;;;;6.70;2.53;;;17.80;53.20;;;;;;5069007;28;20115;-52
2022/04/29 10:10:11;;;;;;;3.08;1.73;;;17.80;55.40;;;;;;5079298;28;20106;-50
2022/04/29 10:12:37;;;;;;;5.20;2.28;;;18.10;56.40;;;;;;5080258;28;20099;-50
2022/04/29 10:15:09;;;;;;;6.88;2.53;;;18.00;56.80;;;;;;5078816;28;20325;-51
2022/04/29 10:23:15;;;;;;;6.82;2.58;;;18.10;59.00;;;;;;5077716;28;20399;-49
2022/04/29 10:25:46;;;;;;;7.03;3.05;;;17.80;57.30;;;;;;5078301;28;20017;-49
2022/04/29 10:28:17;;;;;;;8.75;3.63;;;17.60;57.80;;;;;;5078767;28;20024;-51
2022/04/29 10:30:43;;;;;;;10.15;4.07;;;17.60;62.90;;;;;;5074666;28;20023;-51
2022/04/29 10:33:24;;;;;;;8.48;3.47;;;18.20;61.20;;;;;;5079651;28;20539;-49
2022/04/29 10:35:53;;;;;;;7.03;3.85;;;18.50;58.70;;;;;;5077875;28;20021;-50
2022/04/29 10:38:23;;;;;;;7.53;3.22;;;18.70;59.40;;;;;;5078337;28;20372;-51
2022/04/29 10:41:11;;;;;;;6.97;4.15;;;18.70;58.20;;;;;;5078597;28;20051;-51
2022/04/29 10:43:44;;;;;;;7.55;3.67;;;18.90;59.00;;;;;;5079608;28;20021;-49
2022/04/29 10:46:10;;;;;;;10.63;4.13;;;18.70;57.60;;;;;;5069844;28;20034;-50
2022/04/29 10:48:37;;;;;;;16.83;3.80;;;18.90;58.40;;;;;;5078266;28;20107;-50
2022/04/29 10:51:09;;;;;;;;;;;19.40;59.60;;;;;;5075276;28;20021;-48
2022/04/29 10:53:40;;;;;;;6.20;3.40;;;19.00;56.70;;;;;;5079854;28;20313;-51
2022/04/29 10:56:28;;;;;;;9.57;3.78;;;19.20;54.70;;;;;;5065156;28;20099;-49
2022/04/29 10:59:09;;;;;;;15.40;4.63;;;19.10;53.80;;;;;;5078727;28;20020;-49
2022/04/29 11:01:36;;;;;;;8.70;4.50;;;20.10;56.50;;;;;;5066431;28;20028;-51
2022/04/29 11:04:27;;;;;;;13.88;5.35;;;20.90;54.50;;;;;;5075333;28;20020;-49
2022/04/29 11:06:53;;;;;;;10.35;4.68;;;20.60;51.70;;;;;;5078542;28;20020;-50
2022/04/29 11:09:48;;;;;;;26.60;5.60;;;20.00;58.20;;;;;;5067798;28;20024;-50
2022/04/29 11:12:33;;;;;;;7.82;3.92;;;19.70;55.70;;;;;;5078379;28;20043;-51
2022/04/29 11:15:18;;;;;;;13.30;6.03;;;19.50;55.00;;;;;;5079473;28;20023;-49
2022/04/29 11:17:44;;;;;;;11.43;3.90;;;19.20;56.60;;;;;;5075894;28;20020;-49
2022/04/29 11:20:25;;;;;;;8.93;3.90;;;18.80;55.10;;;;;;5081568;28;20046;-49
2022/04/29 11:26:02;;;;;;;7.97;4.38;;;18.30;56.60;;;;;;5079634;28;20074;-52
2022/04/29 11:28:30;;;;;;;10.52;4.00;;;18.20;56.70;;;;;;5068815;28;20028;-49
2022/04/29 11:31:06;;;;;;;10.23;4.03;;;18.00;57.40;;;;;;5080390;28;20104;-50
2022/04/29 11:33:33;;;;;;;12.13;4.95;;;18.10;60.60;;;;;;5082128;28;20119;-49
2022/04/29 11:36:03;;;;;;;4.45;2.55;;;18.40;61.30;;;;;;5081474;28;20428;-51
2022/04/29 11:38:31;;;;;;;6.35;2.95;;;18.80;58.30;;;;;;5071993;28;20030;-50
2022/04/29 11:40:58;;;;;;;;;;;19.20;58.60;;;;;;5083943;28;20147;-50
2022/04/29 11:43:24;;;;;;;9.85;2.58;;;19.60;57.50;;;;;;5081935;28;20072;-51
2022/04/29 11:46:05;;;;;;;7.60;3.15;;;19.90;57.70;;;;;;5082056;28;20425;-50
2022/04/29 11:48:33;;;;;;;10.70;2.90;;;20.30;55.80;;;;;;5080991;28;20020;-51
2022/04/29 11:50:59;;;;;;;9.43;4.10;;;20.50;55.40;;;;;;5072625;28;20025;-50
2022/04/29 11:53:25;;;;;;;13.30;4.32;;;20.10;53.80;;;;;;5072529;28;20440;-50
2022/04/29 11:55:51;;;;;;;7.15;3.92;;;19.60;54.90;;;;;;5072423;28;20056;-50
2022/04/29 11:58:17;;;;;;;6.63;2.65;;;20.00;55.20;;;;;;5071841;28;20752;-50
2022/04/29 12:00:49;;;;;;;7.63;3.50;;;20.40;54.00;;;;;;5072379;28;20040;-50
2022/04/29 12:03:20;;;;;;;6.18;2.80;;;20.70;52.50;;;;;;5072490;28;20024;-50
2022/04/29 12:05:46;;;;;;;10.05;2.50;;;20.90;51.20;;;;;;5072417;28;20028;-50
2022/04/29 12:08:12;;;;;;;12.88;3.80;;;20.90;54.50;;;;;;5071368;28;20021;-49
2022/04/29 12:10:41;;;;;;;6.38;2.80;;;21.20;52.20;;;;;;5070763;28;20131;-51
2022/04/29 12:13:07;;;;;;;9.65;3.00;;;21.00;51.40;;;;;;5070410;28;20020;-50
2022/04/29 12:15:35;;;;;;;11.68;3.35;;;21.10;50.60;;;;;;5071079;28;20029;-51
2022/04/29 12:18:03;;;;;;;8.10;3.20;;;21.20;51.10;;;;;;5070978;28;20684;-53
2022/04/29 12:20:30;;;;;;;5.72;2.72;;;21.10;52.20;;;;;;5052946;28;20110;-51
2022/04/29 12:23:22;;;;;;;6.78;3.75;;;21.20;53.00;;;;;;5071461;28;20024;-52
2022/04/29 12:25:48;;;;;;;6.65;3.05;;;20.80;49.60;;;;;;5068886;28;20047;-51
2022/04/29 12:28:21;;;;;;;7.80;2.58;;;20.90;51.00;;;;;;5071627;28;20025;-50
2022/04/29 12:36:26;;;;;;;7.65;2.88;;;20.60;46.90;;;;;;5071335;28;20399;-52
2022/04/29 12:39:02;;;;;;;7.05;2.90;;;20.40;49.50;;;;;;5071479;28;20029;-50
2022/04/29 12:41:29;;;;;;;7.60;3.05;;;20.60;49.80;;;;;;5071537;28;20041;-51
2022/04/29 12:44:08;;;;;;;10.10;3.53;;;20.80;50.70;;;;;;5070969;28;20020;-52
2022/04/29 12:46:34;;;;;;;8.45;3.15;;;21.20;49.10;;;;;;5071239;28;20023;-50
2022/04/29 12:49:00;;;;;;;9.63;2.97;;;21.10;47.80;;;;;;5071038;28;20035;-50
2022/04/29 12:51:29;;;;;;;10.63;3.05;;;21.40;48.70;;;;;;5071066;28;20039;-50
2022/04/29 12:53:56;;;;;;;5.30;2.78;;;20.70;46.50;;;;;;5051183;28;20033;-50
2022/04/29 12:56:30;;;;;;;7.93;3.13;;;20.60;48.00;;;;;;5051233;28;20028;-49
2022/04/29 12:58:56;;;;;;;6.25;2.58;;;20.30;49.60;;;;;;5050931;28;20032;-51
2022/04/29 13:01:23;;;;;;;7.85;3.15;;;19.70;49.30;;;;;;5051282;28;20047;-50
2022/04/29 13:03:51;;;;;;;9.30;3.28;;;19.50;52.80;;;;;;5051029;28;20029;-49
2022/04/29 13:06:18;;;;;;;10.90;4.15;;;19.40;52.40;;;;;;5051121;28;20115;-51
2022/04/29 13:08:45;;;;;;;10.65;3.80;;;19.30;52.20;;;;;;5050896;28;20104;-51
2022/04/29 13:11:16;;;;;;;10.90;3.00;;;19.00;51.90;;;;;;5051030;28;20041;-51
2022/04/29 13:13:42;;;;;;;8.00;3.70;;;19.00;53.20;;;;;;5050578;28;20021;-49
2022/04/29 13:16:08;;;;;;;6.90;3.20;;;18.90;52.40;;;;;;5051028;28;20037;-51